sensor_id;sensor_type;location;lat;lon;timestamp;P1;durP1;ratioP1;P2;durP2;ratioP2
23754;SDS011;12057;52.042;6.830;2023-02-17T00:04:36;78.95;;;34.10;;
23754;SDS011;12057;52.042;6.830;2023-02-17T00:09:37;74.73;;;32.93;;
23754;SDS011;12057;52.042;6.830;2023-02-17T00:14:38;64.80;;;31.50;;
23754;SDS011;12057;52.042;6.830;2023-02-17T00:19:39;68.57;;;32.55;;
23754;SDS011;12057;52.042;6.830;2023-02-17T00:24:40;67.27;;;32.57;;
23754;SDS011;12057;52.042;6.830;2023-02-17T00:29:41;77.43;;;35.60;;
23754;SDS011;12057;52.042;6.830;2023-02-17T00:34:41;76.47;;;35.03;;
23754;SDS011;12057;52.042;6.830;2023-02-17T00:39:42;80.00;;;33.00;;
23754;SDS011;12057;52.042;6.830;2023-02-17T00:44:43;68.93;;;32.53;;
23754;SDS011;12057;52.042;6.830;2023-02-17T00:49:44;72.80;;;32.20;;
23754;SDS011;12057;52.042;6.830;2023-02-17T00:54:45;67.40;;;30.00;;
23754;SDS011;12057;52.042;6.830;2023-02-17T00:59:45;65.53;;;30.23;;
23754;SDS011;12057;52.042;6.830;2023-02-17T01:04:46;64.50;;;29.77;;
23754;SDS011;12057;52.042;6.830;2023-02-17T01:09:47;71.27;;;32.43;;
23754;SDS011;12057;52.042;6.830;2023-02-17T01:14:48;62.77;;;29.73;;
23754;SDS011;12057;52.042;6.830;2023-02-17T01:19:48;66.78;;;30.35;;
23754;SDS011;12057;52.042;6.830;2023-02-17T01:24:49;62.83;;;30.83;;
23754;SDS011;12057;52.042;6.830;2023-02-17T01:29:50;62.20;;;29.07;;
23754;SDS011;12057;52.042;6.830;2023-02-17T01:34:51;60.23;;;29.10;;
23754;SDS011;12057;52.042;6.830;2023-02-17T01:39:51;68.93;;;29.93;;
23754;SDS011;12057;52.042;6.830;2023-02-17T01:50:18;67.82;;;29.77;;
23754;SDS011;12057;52.042;6.830;2023-02-17T01:55:23;63.92;;;29.40;;
23754;SDS011;12057;52.042;6.830;2023-02-17T02:05:29;57.22;;;28.27;;
23754;SDS011;12057;52.042;6.830;2023-02-17T02:10:30;65.60;;;30.70;;
23754;SDS011;12057;52.042;6.830;2023-02-17T02:15:48;55.50;;;28.30;;
23754;SDS011;12057;52.042;6.830;2023-02-17T02:21:18;59.55;;;28.83;;
23754;SDS011;12057;52.042;6.830;2023-02-17T02:32:46;54.22;;;25.35;;
23754;SDS011;12057;52.042;6.830;2023-02-17T02:43:09;49.27;;;24.53;;
23754;SDS011;12057;52.042;6.830;2023-02-17T03:04:49;53.53;;;26.25;;
23754;SDS011;12057;52.042;6.830;2023-02-17T03:10:09;50.40;;;26.00;;
23754;SDS011;12057;52.042;6.830;2023-02-17T03:15:12;58.93;;;26.23;;
23754;SDS011;12057;52.042;6.830;2023-02-17T03:20:17;60.30;;;28.83;;
23754;SDS011;12057;52.042;6.830;2023-02-17T03:25:18;55.83;;;26.43;;
23754;SDS011;12057;52.042;6.830;2023-02-17T03:30:19;51.57;;;25.57;;
23754;SDS011;12057;52.042;6.830;2023-02-17T03:35:20;53.60;;;25.03;;
23754;SDS011;12057;52.042;6.830;2023-02-17T03:40:21;53.07;;;23.83;;
23754;SDS011;12057;52.042;6.830;2023-02-17T03:45:22;51.93;;;23.63;;
23754;SDS011;12057;52.042;6.830;2023-02-17T03:50:22;52.20;;;23.50;;
23754;SDS011;12057;52.042;6.830;2023-02-17T03:55:23;48.73;;;24.13;;
23754;SDS011;12057;52.042;6.830;2023-02-17T04:00:24;48.07;;;22.57;;
23754;SDS011;12057;52.042;6.830;2023-02-17T04:05:25;50.63;;;23.37;;
23754;SDS011;12057;52.042;6.830;2023-02-17T04:10:25;42.87;;;21.60;;
23754;SDS011;12057;52.042;6.830;2023-02-17T04:15:26;42.23;;;19.87;;
23754;SDS011;12057;52.042;6.830;2023-02-17T04:20:28;40.75;;;21.00;;
23754;SDS011;12057;52.042;6.830;2023-02-17T04:25:29;38.20;;;18.33;;
23754;SDS011;12057;52.042;6.830;2023-02-17T04:30:36;35.90;;;17.85;;
23754;SDS011;12057;52.042;6.830;2023-02-17T04:35:37;40.33;;;18.87;;
23754;SDS011;12057;52.042;6.830;2023-02-17T04:40:38;36.33;;;18.37;;
23754;SDS011;12057;52.042;6.830;2023-02-17T04:45:39;32.80;;;18.43;;
23754;SDS011;12057;52.042;6.830;2023-02-17T04:50:40;44.37;;;19.97;;
23754;SDS011;12057;52.042;6.830;2023-02-17T04:55:41;36.47;;;19.13;;
23754;SDS011;12057;52.042;6.830;2023-02-17T05:00:42;40.03;;;19.45;;
23754;SDS011;12057;52.042;6.830;2023-02-17T05:05:43;42.40;;;21.43;;
23754;SDS011;12057;52.042;6.830;2023-02-17T05:10:44;42.85;;;20.92;;
23754;SDS011;12057;52.042;6.830;2023-02-17T05:15:45;41.93;;;19.93;;
23754;SDS011;12057;52.042;6.830;2023-02-17T05:20:46;45.08;;;21.70;;
23754;SDS011;12057;52.042;6.830;2023-02-17T05:25:47;44.33;;;20.23;;
23754;SDS011;12057;52.042;6.830;2023-02-17T05:30:48;43.53;;;20.80;;
23754;SDS011;12057;52.042;6.830;2023-02-17T05:40:50;45.10;;;20.60;;
23754;SDS011;12057;52.042;6.830;2023-02-17T05:45:50;35.43;;;14.43;;
23754;SDS011;12057;52.042;6.830;2023-02-17T05:50:51;38.27;;;18.20;;
23754;SDS011;12057;52.042;6.830;2023-02-17T05:55:52;30.07;;;16.17;;
23754;SDS011;12057;52.042;6.830;2023-02-17T06:00:53;33.97;;;15.40;;
23754;SDS011;12057;52.042;6.830;2023-02-17T06:05:53;31.47;;;14.20;;
23754;SDS011;12057;52.042;6.830;2023-02-17T06:10:54;33.63;;;13.87;;
23754;SDS011;12057;52.042;6.830;2023-02-17T06:15:55;29.10;;;14.93;;
23754;SDS011;12057;52.042;6.830;2023-02-17T06:20:56;31.23;;;14.93;;
23754;SDS011;12057;52.042;6.830;2023-02-17T06:31:01;38.35;;;16.05;;
23754;SDS011;12057;52.042;6.830;2023-02-17T06:36:02;29.17;;;14.70;;
23754;SDS011;12057;52.042;6.830;2023-02-17T06:41:03;33.65;;;15.18;;
23754;SDS011;12057;52.042;6.830;2023-02-17T06:46:04;37.10;;;15.77;;
23754;SDS011;12057;52.042;6.830;2023-02-17T06:51:04;35.07;;;14.70;;
23754;SDS011;12057;52.042;6.830;2023-02-17T06:56:05;39.00;;;13.60;;
23754;SDS011;12057;52.042;6.830;2023-02-17T07:01:13;31.75;;;15.32;;
23754;SDS011;12057;52.042;6.830;2023-02-17T07:06:18;35.03;;;15.57;;
23754;SDS011;12057;52.042;6.830;2023-02-17T07:11:20;34.53;;;14.40;;
23754;SDS011;12057;52.042;6.830;2023-02-17T07:16:24;36.90;;;15.13;;
23754;SDS011;12057;52.042;6.830;2023-02-17T07:21:25;30.83;;;14.10;;
23754;SDS011;12057;52.042;6.830;2023-02-17T07:26:26;31.50;;;13.43;;
23754;SDS011;12057;52.042;6.830;2023-02-17T07:31:27;32.93;;;14.57;;
23754;SDS011;12057;52.042;6.830;2023-02-17T07:36:28;33.17;;;14.53;;
23754;SDS011;12057;52.042;6.830;2023-02-17T07:41:29;24.45;;;11.38;;
23754;SDS011;12057;52.042;6.830;2023-02-17T07:46:32;28.48;;;13.52;;
23754;SDS011;12057;52.042;6.830;2023-02-17T07:51:33;29.37;;;12.83;;
23754;SDS011;12057;52.042;6.830;2023-02-17T07:56:34;31.03;;;14.70;;
23754;SDS011;12057;52.042;6.830;2023-02-17T08:01:35;34.10;;;13.77;;
23754;SDS011;12057;52.042;6.830;2023-02-17T08:06:42;37.92;;;15.27;;
23754;SDS011;12057;52.042;6.830;2023-02-17T08:11:43;36.25;;;16.00;;
23754;SDS011;12057;52.042;6.830;2023-02-17T08:17:19;33.35;;;15.65;;
23754;SDS011;12057;52.042;6.830;2023-02-17T08:22:20;37.23;;;15.37;;
23754;SDS011;12057;52.042;6.830;2023-02-17T08:27:21;28.47;;;14.03;;
23754;SDS011;12057;52.042;6.830;2023-02-17T08:32:21;37.00;;;16.23;;
23754;SDS011;12057;52.042;6.830;2023-02-17T08:37:22;36.67;;;14.93;;
23754;SDS011;12057;52.042;6.830;2023-02-17T08:42:24;35.90;;;14.83;;
23754;SDS011;12057;52.042;6.830;2023-02-17T08:47:26;59.35;;;26.42;;
23754;SDS011;12057;52.042;6.830;2023-02-17T08:52:26;58.80;;;22.27;;
23754;SDS011;12057;52.042;6.830;2023-02-17T08:57:27;33.73;;;15.27;;
23754;SDS011;12057;52.042;6.830;2023-02-17T09:02:28;36.70;;;14.93;;
23754;SDS011;12057;52.042;6.830;2023-02-17T09:07:29;39.57;;;14.80;;
23754;SDS011;12057;52.042;6.830;2023-02-17T09:12:30;36.90;;;15.63;;
23754;SDS011;12057;52.042;6.830;2023-02-17T09:17:37;35.83;;;14.43;;
23754;SDS011;12057;52.042;6.830;2023-02-17T09:22:39;32.35;;;15.43;;
23754;SDS011;12057;52.042;6.830;2023-02-17T09:27:40;31.10;;;14.27;;
23754;SDS011;12057;52.042;6.830;2023-02-17T09:32:41;33.50;;;13.83;;
23754;SDS011;12057;52.042;6.830;2023-02-17T09:37:43;28.65;;;12.95;;
23754;SDS011;12057;52.042;6.830;2023-02-17T09:42:44;26.73;;;13.95;;
23754;SDS011;12057;52.042;6.830;2023-02-17T09:47:47;33.08;;;14.93;;
23754;SDS011;12057;52.042;6.830;2023-02-17T09:52:57;29.00;;;13.50;;
23754;SDS011;12057;52.042;6.830;2023-02-17T09:58:12;29.48;;;13.43;;
23754;SDS011;12057;52.042;6.830;2023-02-17T10:08:33;27.10;;;13.70;;
23754;SDS011;12057;52.042;6.830;2023-02-17T10:13:48;34.45;;;13.13;;
23754;SDS011;12057;52.042;6.830;2023-02-17T10:19:03;30.73;;;14.68;;
23754;SDS011;12057;52.042;6.830;2023-02-17T10:24:17;31.67;;;13.38;;
23754;SDS011;12057;52.042;6.830;2023-02-17T10:29:19;27.73;;;14.67;;
23754;SDS011;12057;52.042;6.830;2023-02-17T10:34:35;29.83;;;16.08;;
23754;SDS011;12057;52.042;6.830;2023-02-17T10:39:48;33.42;;;13.82;;
23754;SDS011;12057;52.042;6.830;2023-02-17T10:44:51;23.98;;;12.88;;
23754;SDS011;12057;52.042;6.830;2023-02-17T10:49:57;26.17;;;12.65;;
23754;SDS011;12057;52.042;6.830;2023-02-17T10:55:02;26.17;;;13.13;;
23754;SDS011;12057;52.042;6.830;2023-02-17T11:00:05;21.90;;;12.18;;
23754;SDS011;12057;52.042;6.830;2023-02-17T11:05:18;27.75;;;13.30;;
23754;SDS011;12057;52.042;6.830;2023-02-17T11:10:26;24.25;;;12.65;;
23754;SDS011;12057;52.042;6.830;2023-02-17T11:15:45;30.20;;;10.63;;
23754;SDS011;12057;52.042;6.830;2023-02-17T11:20:46;21.00;;;11.10;;
23754;SDS011;12057;52.042;6.830;2023-02-17T11:25:58;15.50;;;9.73;;
23754;SDS011;12057;52.042;6.830;2023-02-17T11:31:01;18.83;;;10.90;;
23754;SDS011;12057;52.042;6.830;2023-02-17T11:36:04;23.95;;;12.10;;
23754;SDS011;12057;52.042;6.830;2023-02-17T11:41:06;26.00;;;13.80;;
23754;SDS011;12057;52.042;6.830;2023-02-17T11:56:44;16.35;;;8.50;;
23754;SDS011;12057;52.042;6.830;2023-02-17T12:07:13;14.85;;;8.30;;
23754;SDS011;12057;52.042;6.830;2023-02-17T12:17:58;15.23;;;6.18;;
23754;SDS011;12057;52.042;6.830;2023-02-17T12:44:12;12.18;;;6.13;;
23754;SDS011;12057;52.042;6.830;2023-02-17T12:49:24;12.60;;;6.68;;
23754;SDS011;12057;52.042;6.830;2023-02-17T12:54:32;15.48;;;6.30;;
23754;SDS011;12057;52.042;6.830;2023-02-17T13:00:00;13.45;;;6.18;;
23754;SDS011;12057;52.042;6.830;2023-02-17T13:05:02;14.85;;;5.90;;
23754;SDS011;12057;52.042;6.830;2023-02-17T13:10:18;27.85;;;7.60;;
23754;SDS011;12057;52.042;6.830;2023-02-17T13:15:26;19.20;;;8.32;;
23754;SDS011;12057;52.042;6.830;2023-02-17T13:20:42;20.27;;;8.38;;
23754;SDS011;12057;52.042;6.830;2023-02-17T13:26:00;33.80;;;9.13;;
23754;SDS011;12057;52.042;6.830;2023-02-17T13:31:13;28.48;;;10.88;;
23754;SDS011;12057;52.042;6.830;2023-02-17T13:41:25;24.15;;;10.57;;
23754;SDS011;12057;52.042;6.830;2023-02-17T13:46:29;21.75;;;9.25;;
23754;SDS011;12057;52.042;6.830;2023-02-17T13:51:31;22.27;;;8.68;;
23754;SDS011;12057;52.042;6.830;2023-02-17T13:56:32;16.88;;;8.05;;
23754;SDS011;12057;52.042;6.830;2023-02-17T14:01:34;20.70;;;7.67;;
23754;SDS011;12057;52.042;6.830;2023-02-17T14:06:40;22.38;;;8.23;;
23754;SDS011;12057;52.042;6.830;2023-02-17T14:11:41;15.50;;;7.83;;
23754;SDS011;12057;52.042;6.830;2023-02-17T14:16:57;14.52;;;7.68;;
23754;SDS011;12057;52.042;6.830;2023-02-17T14:22:02;15.90;;;7.55;;
23754;SDS011;12057;52.042;6.830;2023-02-17T14:27:06;20.30;;;8.50;;
23754;SDS011;12057;52.042;6.830;2023-02-17T14:32:42;20.70;;;9.30;;
23754;SDS011;12057;52.042;6.830;2023-02-17T14:37:45;28.92;;;8.25;;
23754;SDS011;12057;52.042;6.830;2023-02-17T14:42:46;20.88;;;8.30;;
23754;SDS011;12057;52.042;6.830;2023-02-17T14:47:47;27.47;;;9.37;;
23754;SDS011;12057;52.042;6.830;2023-02-17T14:52:48;31.07;;;8.90;;
23754;SDS011;12057;52.042;6.830;2023-02-17T14:57:48;26.93;;;8.37;;
23754;SDS011;12057;52.042;6.830;2023-02-17T15:02:51;28.17;;;10.00;;
23754;SDS011;12057;52.042;6.830;2023-02-17T15:07:52;27.40;;;9.60;;
23754;SDS011;12057;52.042;6.830;2023-02-17T15:12:53;22.10;;;9.60;;
23754;SDS011;12057;52.042;6.830;2023-02-17T15:17:55;18.38;;;7.38;;
23754;SDS011;12057;52.042;6.830;2023-02-17T15:22:55;26.10;;;8.43;;
23754;SDS011;12057;52.042;6.830;2023-02-17T15:27:57;27.10;;;8.48;;
23754;SDS011;12057;52.042;6.830;2023-02-17T15:32:58;23.40;;;9.77;;
23754;SDS011;12057;52.042;6.830;2023-02-17T15:38:00;22.75;;;8.07;;
23754;SDS011;12057;52.042;6.830;2023-02-17T15:43:01;28.90;;;9.30;;
23754;SDS011;12057;52.042;6.830;2023-02-17T15:48:06;19.60;;;8.00;;
23754;SDS011;12057;52.042;6.830;2023-02-17T15:53:20;23.73;;;6.72;;
23754;SDS011;12057;52.042;6.830;2023-02-17T15:58:21;23.00;;;7.27;;
23754;SDS011;12057;52.042;6.830;2023-02-17T16:03:22;18.25;;;7.75;;
23754;SDS011;12057;52.042;6.830;2023-02-17T16:08:23;18.87;;;6.23;;
23754;SDS011;12057;52.042;6.830;2023-02-17T16:13:24;28.10;;;6.13;;
23754;SDS011;12057;52.042;6.830;2023-02-17T16:18:26;28.58;;;6.78;;
23754;SDS011;12057;52.042;6.830;2023-02-17T16:23:26;21.90;;;7.93;;
23754;SDS011;12057;52.042;6.830;2023-02-17T16:28:27;28.33;;;9.53;;
23754;SDS011;12057;52.042;6.830;2023-02-17T16:33:32;27.45;;;6.68;;
23754;SDS011;12057;52.042;6.830;2023-02-17T16:38:33;25.65;;;6.35;;
23754;SDS011;12057;52.042;6.830;2023-02-17T16:43:34;18.20;;;6.30;;
23754;SDS011;12057;52.042;6.830;2023-02-17T16:48:35;23.90;;;7.57;;
23754;SDS011;12057;52.042;6.830;2023-02-17T16:53:36;29.95;;;7.57;;
23754;SDS011;12057;52.042;6.830;2023-02-17T16:58:36;24.73;;;7.70;;
23754;SDS011;12057;52.042;6.830;2023-02-17T17:03:39;27.38;;;7.63;;
23754;SDS011;12057;52.042;6.830;2023-02-17T17:08:41;22.23;;;6.88;;
23754;SDS011;12057;52.042;6.830;2023-02-17T17:13:45;16.80;;;8.03;;
23754;SDS011;12057;52.042;6.830;2023-02-17T17:18:46;22.50;;;8.10;;
23754;SDS011;12057;52.042;6.830;2023-02-17T17:23:47;21.92;;;7.32;;
23754;SDS011;12057;52.042;6.830;2023-02-17T17:28:49;27.55;;;8.27;;
23754;SDS011;12057;52.042;6.830;2023-02-17T17:33:51;67.43;;;27.27;;
23754;SDS011;12057;52.042;6.830;2023-02-17T17:43:56;16.55;;;7.45;;
23754;SDS011;12057;52.042;6.830;2023-02-17T17:48:58;23.52;;;7.15;;
23754;SDS011;12057;52.042;6.830;2023-02-17T17:53:59;35.47;;;8.32;;
23754;SDS011;12057;52.042;6.830;2023-02-17T17:59:01;37.43;;;8.70;;
23754;SDS011;12057;52.042;6.830;2023-02-17T18:04:02;32.58;;;9.65;;
23754;SDS011;12057;52.042;6.830;2023-02-17T18:09:04;32.78;;;9.60;;
23754;SDS011;12057;52.042;6.830;2023-02-17T18:14:07;24.48;;;9.93;;
23754;SDS011;12057;52.042;6.830;2023-02-17T18:19:09;36.92;;;11.85;;
23754;SDS011;12057;52.042;6.830;2023-02-17T18:24:12;34.03;;;11.20;;
23754;SDS011;12057;52.042;6.830;2023-02-17T18:29:12;32.30;;;12.13;;
23754;SDS011;12057;52.042;6.830;2023-02-17T18:34:13;33.40;;;12.93;;
23754;SDS011;12057;52.042;6.830;2023-02-17T18:39:14;30.80;;;12.10;;
23754;SDS011;12057;52.042;6.830;2023-02-17T18:44:18;25.30;;;10.97;;
23754;SDS011;12057;52.042;6.830;2023-02-17T18:49:19;33.92;;;12.98;;
23754;SDS011;12057;52.042;6.830;2023-02-17T18:54:19;32.47;;;12.97;;
23754;SDS011;12057;52.042;6.830;2023-02-17T18:59:20;30.97;;;13.30;;
23754;SDS011;12057;52.042;6.830;2023-02-17T19:04:21;44.50;;;13.37;;
23754;SDS011;12057;52.042;6.830;2023-02-17T19:09:22;30.60;;;13.77;;
23754;SDS011;12057;52.042;6.830;2023-02-17T19:14:23;39.97;;;15.03;;
23754;SDS011;12057;52.042;6.830;2023-02-17T19:19:23;38.47;;;16.47;;
23754;SDS011;12057;52.042;6.830;2023-02-17T19:24:26;45.28;;;17.17;;
23754;SDS011;12057;52.042;6.830;2023-02-17T19:29:27;45.83;;;17.47;;
23754;SDS011;12057;52.042;6.830;2023-02-17T19:34:31;45.10;;;17.80;;
23754;SDS011;12057;52.042;6.830;2023-02-17T19:39:32;59.72;;;19.80;;
23754;SDS011;12057;52.042;6.830;2023-02-17T19:44:37;63.00;;;25.80;;
23754;SDS011;12057;52.042;6.830;2023-02-17T19:49:37;73.43;;;27.30;;
23754;SDS011;12057;52.042;6.830;2023-02-17T19:54:38;51.37;;;19.27;;
23754;SDS011;12057;52.042;6.830;2023-02-17T19:59:45;59.10;;;20.53;;
23754;SDS011;12057;52.042;6.830;2023-02-17T20:04:46;56.58;;;22.10;;
23754;SDS011;12057;52.042;6.830;2023-02-17T20:09:47;54.33;;;23.20;;
23754;SDS011;12057;52.042;6.830;2023-02-17T20:14:48;65.17;;;22.83;;
23754;SDS011;12057;52.042;6.830;2023-02-17T20:19:51;62.87;;;24.80;;
23754;SDS011;12057;52.042;6.830;2023-02-17T20:24:53;75.40;;;25.73;;
23754;SDS011;12057;52.042;6.830;2023-02-17T20:29:53;56.47;;;23.77;;
23754;SDS011;12057;52.042;6.830;2023-02-17T20:34:54;68.80;;;24.37;;
23754;SDS011;12057;52.042;6.830;2023-02-17T20:39:55;75.13;;;27.13;;
23754;SDS011;12057;52.042;6.830;2023-02-17T20:44:56;57.97;;;25.92;;
23754;SDS011;12057;52.042;6.830;2023-02-17T20:49:57;55.33;;;24.73;;
23754;SDS011;12057;52.042;6.830;2023-02-17T20:54:58;66.83;;;26.17;;
23754;SDS011;12057;52.042;6.830;2023-02-17T20:59:58;80.10;;;26.40;;
23754;SDS011;12057;52.042;6.830;2023-02-17T21:04:59;69.03;;;25.83;;
23754;SDS011;12057;52.042;6.830;2023-02-17T21:10:00;63.00;;;26.20;;
23754;SDS011;12057;52.042;6.830;2023-02-17T21:15:01;65.03;;;27.50;;
23754;SDS011;12057;52.042;6.830;2023-02-17T21:20:03;78.97;;;28.67;;
23754;SDS011;12057;52.042;6.830;2023-02-17T21:25:07;65.35;;;27.92;;
23754;SDS011;12057;52.042;6.830;2023-02-17T21:30:09;76.03;;;29.65;;
23754;SDS011;12057;52.042;6.830;2023-02-17T21:35:10;65.85;;;29.67;;
23754;SDS011;12057;52.042;6.830;2023-02-17T21:40:11;60.27;;;28.53;;
23754;SDS011;12057;52.042;6.830;2023-02-17T21:45:12;72.63;;;29.63;;
23754;SDS011;12057;52.042;6.830;2023-02-17T21:50:13;77.93;;;32.03;;
23754;SDS011;12057;52.042;6.830;2023-02-17T21:55:14;70.30;;;30.20;;
23754;SDS011;12057;52.042;6.830;2023-02-17T22:00:15;80.23;;;29.10;;
23754;SDS011;12057;52.042;6.830;2023-02-17T22:05:16;93.18;;;30.95;;
23754;SDS011;12057;52.042;6.830;2023-02-17T22:10:17;79.40;;;34.40;;
23754;SDS011;12057;52.042;6.830;2023-02-17T22:15:18;92.30;;;34.70;;
23754;SDS011;12057;52.042;6.830;2023-02-17T22:20:18;82.07;;;32.27;;
23754;SDS011;12057;52.042;6.830;2023-02-17T22:25:20;76.87;;;32.80;;
23754;SDS011;12057;52.042;6.830;2023-02-17T22:30:20;84.97;;;33.60;;
23754;SDS011;12057;52.042;6.830;2023-02-17T22:35:23;104.75;;;37.67;;
23754;SDS011;12057;52.042;6.830;2023-02-17T22:40:24;95.97;;;37.40;;
23754;SDS011;12057;52.042;6.830;2023-02-17T22:45:25;110.60;;;43.67;;
23754;SDS011;12057;52.042;6.830;2023-02-17T22:50:26;106.73;;;38.67;;
23754;SDS011;12057;52.042;6.830;2023-02-17T22:55:27;101.70;;;40.20;;
23754;SDS011;12057;52.042;6.830;2023-02-17T23:00:27;105.83;;;37.83;;
23754;SDS011;12057;52.042;6.830;2023-02-17T23:05:28;113.60;;;40.57;;
23754;SDS011;12057;52.042;6.830;2023-02-17T23:10:29;105.57;;;40.33;;
23754;SDS011;12057;52.042;6.830;2023-02-17T23:15:30;119.77;;;42.90;;
23754;SDS011;12057;52.042;6.830;2023-02-17T23:20:43;104.85;;;40.65;;
23754;SDS011;12057;52.042;6.830;2023-02-17T23:25:52;103.72;;;40.20;;
23754;SDS011;12057;52.042;6.830;2023-02-17T23:30:55;97.00;;;40.78;;
23754;SDS011;12057;52.042;6.830;2023-02-17T23:35:56;117.72;;;43.17;;
23754;SDS011;12057;52.042;6.830;2023-02-17T23:40:56;119.43;;;42.70;;
23754;SDS011;12057;52.042;6.830;2023-02-17T23:45:57;106.17;;;39.80;;
23754;SDS011;12057;52.042;6.830;2023-02-17T23:51:00;123.07;;;38.30;;
23754;SDS011;12057;52.042;6.830;2023-02-17T23:56:07;142.25;;;41.72;;
